sensor_id;sensor_type;location;lat;lon;timestamp;P1;durP1;ratioP1;P2;durP2;ratioP2
11498;SDS011;5806;48.748;9.278;2023-06-22T09:39:56;8.33;;;7.53;;
11498;SDS011;5806;48.748;9.278;2023-06-22T09:42:24;11.10;;;8.33;;
11498;SDS011;5806;48.748;9.278;2023-06-22T09:44:51;9.33;;;8.35;;
11498;SDS011;5806;48.748;9.278;2023-06-22T09:47:19;8.60;;;7.80;;
11498;SDS011;5806;48.748;9.278;2023-06-22T09:49:46;8.03;;;7.22;;
11498;SDS011;5806;48.748;9.278;2023-06-22T09:52:14;10.65;;;8.45;;
11498;SDS011;5806;48.748;9.278;2023-06-22T09:54:42;8.60;;;7.80;;
11498;SDS011;5806;48.748;9.278;2023-06-22T09:57:09;8.67;;;7.77;;
11498;SDS011;5806;48.748;9.278;2023-06-22T09:59:37;10.33;;;7.87;;
11498;SDS011;5806;48.748;9.278;2023-06-22T10:02:08;9.00;;;7.97;;
11498;SDS011;5806;48.748;9.278;2023-06-22T10:04:35;8.07;;;7.30;;
11498;SDS011;5806;48.748;9.278;2023-06-22T10:07:03;8.77;;;7.93;;
11498;SDS011;5806;48.748;9.278;2023-06-22T10:09:31;8.83;;;7.93;;
11498;SDS011;5806;48.748;9.278;2023-06-22T10:11:58;8.73;;;7.83;;
11498;SDS011;5806;48.748;9.278;2023-06-22T10:14:25;9.37;;;8.47;;
11498;SDS011;5806;48.748;9.278;2023-06-22T10:16:54;9.10;;;8.30;;
11498;SDS011;5806;48.748;9.278;2023-06-22T10:19:22;10.43;;;8.77;;
11498;SDS011;5806;48.748;9.278;2023-06-22T10:21:49;9.30;;;8.50;;
11498;SDS011;5806;48.748;9.278;2023-06-22T10:24:17;9.27;;;8.27;;
11498;SDS011;5806;48.748;9.278;2023-06-22T10:26:45;9.33;;;8.43;;
11498;SDS011;5806;48.748;9.278;2023-06-22T10:29:12;9.37;;;8.40;;
11498;SDS011;5806;48.748;9.278;2023-06-22T10:31:39;8.90;;;8.10;;
11498;SDS011;5806;48.748;9.278;2023-06-22T10:34:07;10.20;;;9.30;;
11498;SDS011;5806;48.748;9.278;2023-06-22T10:36:34;11.37;;;9.20;;
11498;SDS011;5806;48.748;9.278;2023-06-22T10:39:02;11.80;;;9.90;;
11498;SDS011;5806;48.748;9.278;2023-06-22T10:41:29;12.70;;;10.87;;
11498;SDS011;5806;48.748;9.278;2023-06-22T10:43:57;12.43;;;11.20;;
11498;SDS011;5806;48.748;9.278;2023-06-22T10:46:24;13.00;;;11.60;;
11498;SDS011;5806;48.748;9.278;2023-06-22T10:48:53;13.43;;;11.07;;
11498;SDS011;5806;48.748;9.278;2023-06-22T10:51:22;14.30;;;12.50;;
11498;SDS011;5806;48.748;9.278;2023-06-22T10:53:49;13.93;;;12.57;;
11498;SDS011;5806;48.748;9.278;2023-06-22T10:56:17;14.33;;;13.00;;
11498;SDS011;5806;48.748;9.278;2023-06-22T10:58:45;14.87;;;13.47;;
11498;SDS011;5806;48.748;9.278;2023-06-22T11:01:13;17.40;;;14.97;;
11498;SDS011;5806;48.748;9.278;2023-06-22T11:03:40;16.07;;;14.37;;
11498;SDS011;5806;48.748;9.278;2023-06-22T11:06:08;15.83;;;14.20;;
11498;SDS011;5806;48.748;9.278;2023-06-22T11:08:35;16.20;;;14.20;;
11498;SDS011;5806;48.748;9.278;2023-06-22T11:11:03;16.07;;;14.37;;
11498;SDS011;5806;48.748;9.278;2023-06-22T11:13:30;16.87;;;14.53;;
11498;SDS011;5806;48.748;9.278;2023-06-22T11:15:57;15.50;;;13.90;;
11498;SDS011;5806;48.748;9.278;2023-06-22T11:18:25;15.23;;;13.63;;
11498;SDS011;5806;48.748;9.278;2023-06-22T11:20:52;17.23;;;15.50;;
11498;SDS011;5806;48.748;9.278;2023-06-22T11:23:20;21.17;;;17.03;;
11498;SDS011;5806;48.748;9.278;2023-06-22T11:25:47;18.40;;;16.60;;
11498;SDS011;5806;48.748;9.278;2023-06-22T11:28:15;21.43;;;18.60;;
11498;SDS011;5806;48.748;9.278;2023-06-22T11:30:42;27.30;;;19.43;;
11498;SDS011;5806;48.748;9.278;2023-06-22T11:33:09;31.60;;;20.57;;
11498;SDS011;5806;48.748;9.278;2023-06-22T11:35:37;29.40;;;20.17;;
11498;SDS011;5806;48.748;9.278;2023-06-22T11:38:05;27.33;;;20.00;;
11498;SDS011;5806;48.748;9.278;2023-06-22T11:40:33;22.47;;;19.80;;
11498;SDS011;5806;48.748;9.278;2023-06-22T11:43:00;26.80;;;22.60;;
11498;SDS011;5806;48.748;9.278;2023-06-22T11:45:28;22.83;;;20.07;;
11498;SDS011;5806;48.748;9.278;2023-06-22T11:47:55;22.80;;;19.83;;
11498;SDS011;5806;48.748;9.278;2023-06-22T11:50:23;21.90;;;19.57;;
11498;SDS011;5806;48.748;9.278;2023-06-22T11:52:50;21.20;;;19.03;;
11498;SDS011;5806;48.748;9.278;2023-06-22T11:55:18;21.07;;;18.87;;
11498;SDS011;5806;48.748;9.278;2023-06-22T11:57:53;21.87;;;19.57;;
11498;SDS011;5806;48.748;9.278;2023-06-22T12:00:21;20.90;;;18.70;;
11498;SDS011;5806;48.748;9.278;2023-06-22T12:02:50;23.93;;;21.63;;
11498;SDS011;5806;48.748;9.278;2023-06-22T12:05:19;20.33;;;18.50;;
11498;SDS011;5806;48.748;9.278;2023-06-22T12:07:48;20.60;;;18.60;;
11498;SDS011;5806;48.748;9.278;2023-06-22T12:10:15;23.57;;;21.07;;
11498;SDS011;5806;48.748;9.278;2023-06-22T12:12:44;23.40;;;20.97;;
11498;SDS011;5806;48.748;9.278;2023-06-22T12:15:11;23.93;;;21.40;;
11498;SDS011;5806;48.748;9.278;2023-06-22T12:17:39;22.83;;;20.67;;
11498;SDS011;5806;48.748;9.278;2023-06-22T12:20:07;23.13;;;20.93;;
11498;SDS011;5806;48.748;9.278;2023-06-22T12:22:35;21.63;;;19.30;;
11498;SDS011;5806;48.748;9.278;2023-06-22T12:25:04;20.57;;;17.70;;
11498;SDS011;5806;48.748;9.278;2023-06-22T12:27:32;20.90;;;18.93;;
11498;SDS011;5806;48.748;9.278;2023-06-22T12:30:00;21.53;;;19.23;;
11498;SDS011;5806;48.748;9.278;2023-06-22T12:32:29;22.27;;;20.17;;
11498;SDS011;5806;48.748;9.278;2023-06-22T12:34:56;21.50;;;19.20;;
11498;SDS011;5806;48.748;9.278;2023-06-22T12:37:24;21.67;;;19.57;;
11498;SDS011;5806;48.748;9.278;2023-06-22T12:39:51;21.67;;;19.47;;
11498;SDS011;5806;48.748;9.278;2023-06-22T12:42:20;20.37;;;18.30;;
11498;SDS011;5806;48.748;9.278;2023-06-22T12:44:47;19.23;;;17.27;;
11498;SDS011;5806;48.748;9.278;2023-06-22T12:47:14;20.47;;;18.47;;
11498;SDS011;5806;48.748;9.278;2023-06-22T12:49:42;21.33;;;19.23;;
11498;SDS011;5806;48.748;9.278;2023-06-22T12:52:09;23.20;;;20.87;;
11498;SDS011;5806;48.748;9.278;2023-06-22T12:54:37;22.70;;;20.57;;
11498;SDS011;5806;48.748;9.278;2023-06-22T12:57:04;21.93;;;19.07;;
11498;SDS011;5806;48.748;9.278;2023-06-22T12:59:32;20.00;;;18.07;;
11498;SDS011;5806;48.748;9.278;2023-06-22T13:02:00;20.73;;;18.63;;
11498;SDS011;5806;48.748;9.278;2023-06-22T13:04:27;20.27;;;18.27;;
11498;SDS011;5806;48.748;9.278;2023-06-22T13:06:54;20.33;;;18.30;;
11498;SDS011;5806;48.748;9.278;2023-06-22T13:09:22;22.57;;;20.33;;
11498;SDS011;5806;48.748;9.278;2023-06-22T13:11:49;18.80;;;17.07;;
11498;SDS011;5806;48.748;9.278;2023-06-22T13:14:18;19.73;;;17.83;;
11498;SDS011;5806;48.748;9.278;2023-06-22T13:16:45;18.33;;;15.43;;
11498;SDS011;5806;48.748;9.278;2023-06-22T13:19:13;15.33;;;13.83;;
11498;SDS011;5806;48.748;9.278;2023-06-22T13:21:40;14.97;;;13.67;;
11498;SDS011;5806;48.748;9.278;2023-06-22T13:24:08;14.90;;;13.50;;
11498;SDS011;5806;48.748;9.278;2023-06-22T13:26:35;16.30;;;14.70;;
11498;SDS011;5806;48.748;9.278;2023-06-22T13:29:03;14.00;;;12.70;;
11498;SDS011;5806;48.748;9.278;2023-06-22T13:31:30;14.10;;;12.43;;
11498;SDS011;5806;48.748;9.278;2023-06-22T13:33:58;13.50;;;12.10;;
11498;SDS011;5806;48.748;9.278;2023-06-22T13:36:25;11.73;;;10.63;;
11498;SDS011;5806;48.748;9.278;2023-06-22T13:38:54;12.40;;;11.20;;
11498;SDS011;5806;48.748;9.278;2023-06-22T13:41:21;12.50;;;11.30;;
11498;SDS011;5806;48.748;9.278;2023-06-22T13:43:49;11.77;;;10.67;;
11498;SDS011;5806;48.748;9.278;2023-06-22T13:46:16;11.07;;;10.07;;
11498;SDS011;5806;48.748;9.278;2023-06-22T13:48:44;8.93;;;8.13;;
11498;SDS011;5806;48.748;9.278;2023-06-22T13:51:11;9.07;;;8.27;;
11498;SDS011;5806;48.748;9.278;2023-06-22T13:53:39;8.07;;;7.27;;
11498;SDS011;5806;48.748;9.278;2023-06-22T13:56:06;8.63;;;7.83;;
11498;SDS011;5806;48.748;9.278;2023-06-22T13:58:33;8.33;;;7.53;;
11498;SDS011;5806;48.748;9.278;2023-06-22T14:01:01;8.17;;;7.40;;
11498;SDS011;5806;48.748;9.278;2023-06-22T14:03:28;7.10;;;6.40;;
11498;SDS011;5806;48.748;9.278;2023-06-22T14:05:56;8.10;;;7.37;;
11498;SDS011;5806;48.748;9.278;2023-06-22T14:08:23;7.37;;;6.67;;
11498;SDS011;5806;48.748;9.278;2023-06-22T14:10:51;9.27;;;7.87;;
11498;SDS011;5806;48.748;9.278;2023-06-22T14:13:19;9.20;;;8.30;;
11498;SDS011;5806;48.748;9.278;2023-06-22T14:15:46;8.53;;;7.73;;
11498;SDS011;5806;48.748;9.278;2023-06-22T14:18:14;9.40;;;8.47;;
11498;SDS011;5806;48.748;9.278;2023-06-22T14:20:41;11.40;;;9.43;;
11498;SDS011;5806;48.748;9.278;2023-06-22T14:23:09;8.90;;;8.00;;
11498;SDS011;5806;48.748;9.278;2023-06-22T14:25:37;8.97;;;7.83;;
11498;SDS011;5806;48.748;9.278;2023-06-22T14:28:05;8.63;;;7.83;;
11498;SDS011;5806;48.748;9.278;2023-06-22T14:30:33;8.80;;;8.00;;
11498;SDS011;5806;48.748;9.278;2023-06-22T14:33:00;9.13;;;8.23;;
11498;SDS011;5806;48.748;9.278;2023-06-22T14:35:27;8.93;;;8.13;;
11498;SDS011;5806;48.748;9.278;2023-06-22T14:37:55;8.37;;;7.53;;
11498;SDS011;5806;48.748;9.278;2023-06-22T14:40:22;9.63;;;8.63;;
11498;SDS011;5806;48.748;9.278;2023-06-22T14:42:50;7.90;;;7.20;;
11498;SDS011;5806;48.748;9.278;2023-06-22T14:45:17;8.37;;;7.53;;
11498;SDS011;5806;48.748;9.278;2023-06-22T14:47:44;8.13;;;7.33;;
11498;SDS011;5806;48.748;9.278;2023-06-22T14:50:12;8.23;;;7.43;;
11498;SDS011;5806;48.748;9.278;2023-06-22T14:52:39;9.33;;;8.33;;
11498;SDS011;5806;48.748;9.278;2023-06-22T14:55:07;12.40;;;8.43;;
11498;SDS011;5806;48.748;9.278;2023-06-22T14:57:35;12.27;;;9.10;;
11498;SDS011;5806;48.748;9.278;2023-06-22T15:00:03;15.00;;;10.77;;
11498;SDS011;5806;48.748;9.278;2023-06-22T15:02:32;38.80;;;16.73;;
11498;SDS011;5806;48.748;9.278;2023-06-22T15:04:59;19.00;;;11.80;;
11498;SDS011;5806;48.748;9.278;2023-06-22T15:07:27;33.43;;;17.30;;
11498;SDS011;5806;48.748;9.278;2023-06-22T15:09:54;24.23;;;15.30;;
11498;SDS011;5806;48.748;9.278;2023-06-22T15:12:21;18.53;;;14.30;;
11498;SDS011;5806;48.748;9.278;2023-06-22T15:14:49;17.77;;;13.20;;
11498;SDS011;5806;48.748;9.278;2023-06-22T15:17:16;16.13;;;12.67;;
11498;SDS011;5806;48.748;9.278;2023-06-22T15:19:44;14.97;;;11.30;;
11498;SDS011;5806;48.748;9.278;2023-06-22T15:22:11;15.87;;;12.23;;
11498;SDS011;5806;48.748;9.278;2023-06-22T15:24:38;15.23;;;12.17;;
11498;SDS011;5806;48.748;9.278;2023-06-22T15:27:06;26.07;;;15.97;;
11498;SDS011;5806;48.748;9.278;2023-06-22T15:29:33;23.60;;;15.00;;
11498;SDS011;5806;48.748;9.278;2023-06-22T15:32:01;20.77;;;13.60;;
11498;SDS011;5806;48.748;9.278;2023-06-22T15:34:28;17.77;;;14.80;;
11498;SDS011;5806;48.748;9.278;2023-06-22T15:36:56;15.97;;;13.27;;
11498;SDS011;5806;48.748;9.278;2023-06-22T15:39:23;16.30;;;13.87;;
11498;SDS011;5806;48.748;9.278;2023-06-22T15:41:52;18.73;;;12.97;;
11498;SDS011;5806;48.748;9.278;2023-06-22T15:44:20;15.87;;;13.80;;
11498;SDS011;5806;48.748;9.278;2023-06-22T15:46:48;18.17;;;13.50;;
11498;SDS011;5806;48.748;9.278;2023-06-22T15:49:16;15.03;;;13.53;;
11498;SDS011;5806;48.748;9.278;2023-06-22T15:51:43;15.97;;;14.37;;
11498;SDS011;5806;48.748;9.278;2023-06-22T15:54:11;16.53;;;14.83;;
11498;SDS011;5806;48.748;9.278;2023-06-22T15:56:38;15.00;;;13.37;;
11498;SDS011;5806;48.748;9.278;2023-06-22T15:59:06;18.97;;;15.70;;
11498;SDS011;5806;48.748;9.278;2023-06-22T16:01:33;15.60;;;13.97;;
11498;SDS011;5806;48.748;9.278;2023-06-22T16:04:01;11.13;;;9.00;;
11498;SDS011;5806;48.748;9.278;2023-06-22T16:06:28;13.67;;;11.07;;
11498;SDS011;5806;48.748;9.278;2023-06-22T16:08:56;12.20;;;11.00;;
11498;SDS011;5806;48.748;9.278;2023-06-22T16:11:24;14.67;;;11.77;;
11498;SDS011;5806;48.748;9.278;2023-06-22T16:13:51;13.07;;;11.53;;
11498;SDS011;5806;48.748;9.278;2023-06-22T16:16:19;13.83;;;12.30;;
11498;SDS011;5806;48.748;9.278;2023-06-22T16:18:46;16.33;;;13.13;;
11498;SDS011;5806;48.748;9.278;2023-06-22T16:21:13;16.40;;;13.47;;
11498;SDS011;5806;48.748;9.278;2023-06-22T16:23:41;14.80;;;12.93;;
11498;SDS011;5806;48.748;9.278;2023-06-22T16:26:09;15.47;;;13.90;;
11498;SDS011;5806;48.748;9.278;2023-06-22T16:28:36;16.23;;;13.40;;
11498;SDS011;5806;48.748;9.278;2023-06-22T16:31:04;14.73;;;13.30;;
11498;SDS011;5806;48.748;9.278;2023-06-22T16:33:31;15.60;;;14.20;;
11498;SDS011;5806;48.748;9.278;2023-06-22T16:35:58;16.40;;;14.70;;
11498;SDS011;5806;48.748;9.278;2023-06-22T16:38:26;16.50;;;14.07;;
11498;SDS011;5806;48.748;9.278;2023-06-22T16:40:55;16.47;;;14.77;;
11498;SDS011;5806;48.748;9.278;2023-06-22T16:43:23;16.97;;;15.27;;
11498;SDS011;5806;48.748;9.278;2023-06-22T16:45:50;19.07;;;17.07;;
11498;SDS011;5806;48.748;9.278;2023-06-22T16:48:17;18.17;;;16.37;;
11498;SDS011;5806;48.748;9.278;2023-06-22T16:50:45;18.90;;;17.00;;
11498;SDS011;5806;48.748;9.278;2023-06-22T16:53:12;15.93;;;14.23;;
11498;SDS011;5806;48.748;9.278;2023-06-22T16:55:40;16.13;;;14.53;;
11498;SDS011;5806;48.748;9.278;2023-06-22T16:58:09;15.57;;;13.97;;
11498;SDS011;5806;48.748;9.278;2023-06-22T17:00:40;13.07;;;11.73;;
11498;SDS011;5806;48.748;9.278;2023-06-22T17:03:08;13.00;;;11.80;;
11498;SDS011;5806;48.748;9.278;2023-06-22T17:05:37;14.13;;;12.27;;
11498;SDS011;5806;48.748;9.278;2023-06-22T17:08:05;13.33;;;11.93;;
11498;SDS011;5806;48.748;9.278;2023-06-22T17:10:36;13.57;;;12.20;;
11498;SDS011;5806;48.748;9.278;2023-06-22T17:13:04;13.23;;;11.93;;
11498;SDS011;5806;48.748;9.278;2023-06-22T17:15:32;13.23;;;11.30;;
11498;SDS011;5806;48.748;9.278;2023-06-22T17:18:04;14.33;;;12.13;;
11498;SDS011;5806;48.748;9.278;2023-06-22T17:20:33;13.33;;;11.87;;
11498;SDS011;5806;48.748;9.278;2023-06-22T17:23:00;13.20;;;11.80;;
11498;SDS011;5806;48.748;9.278;2023-06-22T17:25:28;12.70;;;11.40;;
11498;SDS011;5806;48.748;9.278;2023-06-22T17:28:00;13.63;;;11.60;;
11498;SDS011;5806;48.748;9.278;2023-06-22T17:30:28;11.20;;;9.90;;
11498;SDS011;5806;48.748;9.278;2023-06-22T17:32:56;11.60;;;10.40;;
11498;SDS011;5806;48.748;9.278;2023-06-22T17:35:24;14.90;;;9.80;;
11498;SDS011;5806;48.748;9.278;2023-06-22T17:37:53;11.30;;;10.07;;
11498;SDS011;5806;48.748;9.278;2023-06-22T17:40:23;11.70;;;9.40;;
11498;SDS011;5806;48.748;9.278;2023-06-22T17:43:03;12.53;;;9.53;;
11498;SDS011;5806;48.748;9.278;2023-06-22T17:45:31;14.10;;;11.13;;
11498;SDS011;5806;48.748;9.278;2023-06-22T17:48:00;12.60;;;10.30;;
11498;SDS011;5806;48.748;9.278;2023-06-22T17:50:27;12.27;;;10.97;;
11498;SDS011;5806;48.748;9.278;2023-06-22T17:52:55;12.83;;;10.60;;
11498;SDS011;5806;48.748;9.278;2023-06-22T17:55:23;13.43;;;10.83;;
11498;SDS011;5806;48.748;9.278;2023-06-22T17:57:59;12.30;;;10.80;;
11498;SDS011;5806;48.748;9.278;2023-06-22T18:00:24;13.27;;;11.10;;
11498;SDS011;5806;48.748;9.278;2023-06-22T18:02:52;12.40;;;11.10;;
11498;SDS011;5806;48.748;9.278;2023-06-22T18:05:28;11.90;;;10.80;;
11498;SDS011;5806;48.748;9.278;2023-06-22T18:07:59;13.30;;;11.00;;
11498;SDS011;5806;48.748;9.278;2023-06-22T18:10:28;13.87;;;10.93;;
11498;SDS011;5806;48.748;9.278;2023-06-22T18:12:58;15.23;;;11.40;;
11498;SDS011;5806;48.748;9.278;2023-06-22T18:15:27;12.77;;;10.60;;
11498;SDS011;5806;48.748;9.278;2023-06-22T18:17:54;12.93;;;11.60;;
11498;SDS011;5806;48.748;9.278;2023-06-22T18:20:23;12.10;;;10.60;;
11498;SDS011;5806;48.748;9.278;2023-06-22T18:22:52;12.13;;;10.73;;
11498;SDS011;5806;48.748;9.278;2023-06-22T18:25:20;11.80;;;10.60;;
11498;SDS011;5806;48.748;9.278;2023-06-22T18:27:48;10.63;;;9.57;;
11498;SDS011;5806;48.748;9.278;2023-06-22T18:30:19;10.53;;;8.47;;
11498;SDS011;5806;48.748;9.278;2023-06-22T18:32:47;9.53;;;8.50;;
11498;SDS011;5806;48.748;9.278;2023-06-22T18:35:14;9.80;;;8.73;;
11498;SDS011;5806;48.748;9.278;2023-06-22T18:37:42;9.70;;;8.27;;
11498;SDS011;5806;48.748;9.278;2023-06-22T18:40:12;15.20;;;13.80;;
11498;SDS011;5806;48.748;9.278;2023-06-22T18:42:45;23.43;;;21.13;;
11498;SDS011;5806;48.748;9.278;2023-06-22T18:45:23;26.50;;;23.90;;
11498;SDS011;5806;48.748;9.278;2023-06-22T18:50:36;24.57;;;22.20;;
11498;SDS011;5806;48.748;9.278;2023-06-22T18:53:06;26.83;;;23.67;;
11498;SDS011;5806;48.748;9.278;2023-06-22T18:55:49;30.83;;;27.83;;
11498;SDS011;5806;48.748;9.278;2023-06-22T18:58:16;33.33;;;30.13;;
11498;SDS011;5806;48.748;9.278;2023-06-22T19:00:49;37.20;;;33.60;;
11498;SDS011;5806;48.748;9.278;2023-06-22T19:03:29;35.97;;;32.47;;
11498;SDS011;5806;48.748;9.278;2023-06-22T19:05:58;33.77;;;30.63;;
11498;SDS011;5806;48.748;9.278;2023-06-22T19:08:26;36.77;;;33.37;;
11498;SDS011;5806;48.748;9.278;2023-06-22T19:10:53;36.97;;;33.10;;
11498;SDS011;5806;48.748;9.278;2023-06-22T19:13:28;31.60;;;28.60;;
11498;SDS011;5806;48.748;9.278;2023-06-22T19:16:07;30.43;;;27.47;;
11498;SDS011;5806;48.748;9.278;2023-06-22T19:18:39;27.17;;;24.57;;
11498;SDS011;5806;48.748;9.278;2023-06-22T19:21:11;25.90;;;23.30;;
11498;SDS011;5806;48.748;9.278;2023-06-22T19:23:40;24.03;;;21.73;;
11498;SDS011;5806;48.748;9.278;2023-06-22T19:26:12;24.33;;;21.77;;
11498;SDS011;5806;48.748;9.278;2023-06-22T19:31:20;26.53;;;23.90;;
11498;SDS011;5806;48.748;9.278;2023-06-22T19:34:01;27.17;;;24.37;;
11498;SDS011;5806;48.748;9.278;2023-06-22T19:36:34;26.20;;;23.70;;
11498;SDS011;5806;48.748;9.278;2023-06-22T19:39:02;16.87;;;15.27;;
11498;SDS011;5806;48.748;9.278;2023-06-22T19:41:31;15.23;;;13.83;;
11498;SDS011;5806;48.748;9.278;2023-06-22T19:43:58;12.13;;;11.03;;
11498;SDS011;5806;48.748;9.278;2023-06-22T19:46:27;9.53;;;8.63;;
11498;SDS011;5806;48.748;9.278;2023-06-22T19:48:56;7.03;;;6.43;;
11498;SDS011;5806;48.748;9.278;2023-06-22T19:51:32;7.40;;;6.77;;
11498;SDS011;5806;48.748;9.278;2023-06-22T19:54:08;8.30;;;7.60;;
11498;SDS011;5806;48.748;9.278;2023-06-22T19:56:37;6.63;;;4.43;;
11498;SDS011;5806;48.748;9.278;2023-06-22T19:59:08;4.77;;;3.23;;
11498;SDS011;5806;48.748;9.278;2023-06-22T20:01:38;4.00;;;3.50;;
11498;SDS011;5806;48.748;9.278;2023-06-22T20:04:05;4.27;;;3.47;;
11498;SDS011;5806;48.748;9.278;2023-06-22T20:06:33;4.33;;;3.83;;
11498;SDS011;5806;48.748;9.278;2023-06-22T20:09:02;4.63;;;3.67;;
11498;SDS011;5806;48.748;9.278;2023-06-22T20:11:34;4.50;;;4.10;;
11498;SDS011;5806;48.748;9.278;2023-06-22T20:14:02;3.77;;;3.47;;
11498;SDS011;5806;48.748;9.278;2023-06-22T20:16:29;6.40;;;3.90;;
11498;SDS011;5806;48.748;9.278;2023-06-22T20:21:40;6.87;;;4.97;;
11498;SDS011;5806;48.748;9.278;2023-06-22T20:24:09;6.60;;;5.97;;
11498;SDS011;5806;48.748;9.278;2023-06-22T20:29:30;8.60;;;7.67;;
11498;SDS011;5806;48.748;9.278;2023-06-22T20:32:09;8.30;;;7.40;;
11498;SDS011;5806;48.748;9.278;2023-06-22T20:34:38;7.90;;;7.10;;
11498;SDS011;5806;48.748;9.278;2023-06-22T20:37:09;8.87;;;7.90;;
11498;SDS011;5806;48.748;9.278;2023-06-22T20:39:38;12.70;;;8.97;;
11498;SDS011;5806;48.748;9.278;2023-06-22T20:42:05;8.20;;;7.40;;
11498;SDS011;5806;48.748;9.278;2023-06-22T20:44:34;11.70;;;8.90;;
11498;SDS011;5806;48.748;9.278;2023-06-22T20:47:01;8.57;;;7.67;;
11498;SDS011;5806;48.748;9.278;2023-06-22T20:49:29;9.63;;;7.77;;
11498;SDS011;5806;48.748;9.278;2023-06-22T20:51:56;8.93;;;7.90;;
11498;SDS011;5806;48.748;9.278;2023-06-22T20:54:26;9.50;;;8.00;;
11498;SDS011;5806;48.748;9.278;2023-06-22T20:56:53;9.10;;;8.03;;
11498;SDS011;5806;48.748;9.278;2023-06-22T20:59:20;10.20;;;8.03;;
11498;SDS011;5806;48.748;9.278;2023-06-22T21:01:49;9.87;;;8.97;;
11498;SDS011;5806;48.748;9.278;2023-06-22T21:04:19;9.23;;;8.33;;
11498;SDS011;5806;48.748;9.278;2023-06-22T21:06:46;10.33;;;9.33;;
11498;SDS011;5806;48.748;9.278;2023-06-22T21:09:14;10.60;;;9.50;;
11498;SDS011;5806;48.748;9.278;2023-06-22T21:11:41;10.23;;;8.90;;
11498;SDS011;5806;48.748;9.278;2023-06-22T21:14:09;10.30;;;9.30;;
11498;SDS011;5806;48.748;9.278;2023-06-22T21:16:38;12.27;;;10.10;;
11498;SDS011;5806;48.748;9.278;2023-06-22T21:19:05;10.93;;;9.83;;
11498;SDS011;5806;48.748;9.278;2023-06-22T21:21:33;10.60;;;9.53;;
11498;SDS011;5806;48.748;9.278;2023-06-22T21:24:00;10.60;;;9.50;;
11498;SDS011;5806;48.748;9.278;2023-06-22T21:26:28;11.77;;;10.67;;
11498;SDS011;5806;48.748;9.278;2023-06-22T21:28:57;11.10;;;10.00;;
11498;SDS011;5806;48.748;9.278;2023-06-22T21:31:25;12.03;;;10.83;;
11498;SDS011;5806;48.748;9.278;2023-06-22T21:33:52;10.43;;;9.37;;
11498;SDS011;5806;48.748;9.278;2023-06-22T21:36:20;10.17;;;8.37;;
11498;SDS011;5806;48.748;9.278;2023-06-22T21:38:48;8.43;;;7.63;;
11498;SDS011;5806;48.748;9.278;2023-06-22T21:41:15;8.77;;;7.87;;
11498;SDS011;5806;48.748;9.278;2023-06-22T21:43:43;7.97;;;7.17;;
11498;SDS011;5806;48.748;9.278;2023-06-22T21:46:10;7.80;;;7.00;;
11498;SDS011;5806;48.748;9.278;2023-06-22T21:48:38;9.70;;;7.93;;
11498;SDS011;5806;48.748;9.278;2023-06-22T21:51:05;8.77;;;7.97;;
11498;SDS011;5806;48.748;9.278;2023-06-22T21:53:33;10.17;;;8.57;;
11498;SDS011;5806;48.748;9.278;2023-06-22T21:56:00;12.17;;;8.87;;
11498;SDS011;5806;48.748;9.278;2023-06-22T21:58:28;11.63;;;10.30;;
11498;SDS011;5806;48.748;9.278;2023-06-22T22:00:55;10.17;;;9.17;;
11498;SDS011;5806;48.748;9.278;2023-06-22T22:03:23;12.73;;;11.43;;
11498;SDS011;5806;48.748;9.278;2023-06-22T22:05:54;13.33;;;11.80;;
11498;SDS011;5806;48.748;9.278;2023-06-22T22:08:22;14.43;;;12.80;;
11498;SDS011;5806;48.748;9.278;2023-06-22T22:10:50;12.80;;;11.50;;
11498;SDS011;5806;48.748;9.278;2023-06-22T22:13:17;10.70;;;9.60;;
11498;SDS011;5806;48.748;9.278;2023-06-22T22:15:45;12.47;;;10.70;;
11498;SDS011;5806;48.748;9.278;2023-06-22T22:18:14;13.07;;;11.67;;
11498;SDS011;5806;48.748;9.278;2023-06-22T22:20:42;13.20;;;11.90;;
11498;SDS011;5806;48.748;9.278;2023-06-22T22:23:10;14.43;;;12.50;;
11498;SDS011;5806;48.748;9.278;2023-06-22T22:25:37;13.90;;;12.37;;
11498;SDS011;5806;48.748;9.278;2023-06-22T22:28:05;14.07;;;12.73;;
11498;SDS011;5806;48.748;9.278;2023-06-22T22:30:32;13.77;;;12.37;;
11498;SDS011;5806;48.748;9.278;2023-06-22T22:33:00;12.20;;;10.27;;
11498;SDS011;5806;48.748;9.278;2023-06-22T22:35:27;10.37;;;9.43;;
11498;SDS011;5806;48.748;9.278;2023-06-22T22:37:55;11.23;;;9.67;;
11498;SDS011;5806;48.748;9.278;2023-06-22T22:40:22;9.17;;;8.27;;
11498;SDS011;5806;48.748;9.278;2023-06-22T22:42:50;9.17;;;8.30;;
11498;SDS011;5806;48.748;9.278;2023-06-22T22:45:17;10.03;;;9.03;;
11498;SDS011;5806;48.748;9.278;2023-06-22T22:47:45;10.03;;;9.03;;
11498;SDS011;5806;48.748;9.278;2023-06-22T22:50:13;10.73;;;9.50;;
11498;SDS011;5806;48.748;9.278;2023-06-22T22:52:41;10.10;;;9.10;;
11498;SDS011;5806;48.748;9.278;2023-06-22T22:55:10;10.57;;;9.50;;
11498;SDS011;5806;48.748;9.278;2023-06-22T22:57:39;9.77;;;8.50;;
11498;SDS011;5806;48.748;9.278;2023-06-22T23:00:06;8.83;;;7.93;;
11498;SDS011;5806;48.748;9.278;2023-06-22T23:02:36;9.33;;;8.37;;
11498;SDS011;5806;48.748;9.278;2023-06-22T23:05:07;9.60;;;8.60;;
11498;SDS011;5806;48.748;9.278;2023-06-22T23:07:37;12.13;;;10.93;;
11498;SDS011;5806;48.748;9.278;2023-06-22T23:10:07;12.27;;;10.97;;
11498;SDS011;5806;48.748;9.278;2023-06-22T23:12:36;13.13;;;11.83;;
11498;SDS011;5806;48.748;9.278;2023-06-22T23:15:04;13.87;;;12.40;;
11498;SDS011;5806;48.748;9.278;2023-06-22T23:17:32;14.07;;;12.70;;
11498;SDS011;5806;48.748;9.278;2023-06-22T23:20:00;13.87;;;12.47;;
11498;SDS011;5806;48.748;9.278;2023-06-22T23:22:29;13.83;;;12.47;;
11498;SDS011;5806;48.748;9.278;2023-06-22T23:24:56;14.60;;;12.77;;
11498;SDS011;5806;48.748;9.278;2023-06-22T23:27:24;16.00;;;13.73;;
11498;SDS011;5806;48.748;9.278;2023-06-22T23:29:51;14.53;;;12.93;;
11498;SDS011;5806;48.748;9.278;2023-06-22T23:32:19;13.77;;;12.27;;
11498;SDS011;5806;48.748;9.278;2023-06-22T23:34:46;13.97;;;12.47;;
11498;SDS011;5806;48.748;9.278;2023-06-22T23:37:14;13.47;;;12.17;;
11498;SDS011;5806;48.748;9.278;2023-06-22T23:39:41;12.30;;;11.00;;
11498;SDS011;5806;48.748;9.278;2023-06-22T23:42:09;12.10;;;10.90;;
11498;SDS011;5806;48.748;9.278;2023-06-22T23:44:36;12.60;;;10.47;;
11498;SDS011;5806;48.748;9.278;2023-06-22T23:47:04;13.17;;;10.53;;
11498;SDS011;5806;48.748;9.278;2023-06-22T23:49:32;11.57;;;10.57;;
11498;SDS011;5806;48.748;9.278;2023-06-22T23:51:59;11.93;;;10.83;;
11498;SDS011;5806;48.748;9.278;2023-06-22T23:54:30;13.63;;;12.33;;
11498;SDS011;5806;48.748;9.278;2023-06-22T23:56:57;14.23;;;12.63;;
11498;SDS011;5806;48.748;9.278;2023-06-22T23:59:26;14.53;;;13.13;;
